Time;durP1;ratioP1;P1;durP2;ratioP2;P2;SDS_P1;SDS_P2;PMS_P1;PMS_P2;Temp;Humidity;BMP_temperature;BMP_pressure;BME280_temperature;BME280_humidity;BME280_pressure;Samples;Min_cycle;Max_cycle;Signal;HPM_P1;HPM_P2
2022/03/16 00:00:49;;;;;;;50.97;9.38;;;;;;;;;;4964838;28;20054;-71
2022/03/16 00:03:15;;;;;;;51.00;8.57;;;;;;;;;;4962074;28;20504;-70
2022/03/16 00:05:41;;;;;;;63.25;10.35;;;;;;;;;;4968950;28;20043;-73
2022/03/16 00:08:07;;;;;;;60.67;10.75;;;;;;;;;;4962458;28;20553;-71
2022/03/16 00:10:33;;;;;;;65.85;10.00;;;;;;;;;;4964203;28;20039;-72
2022/03/16 00:12:59;;;;;;;63.30;9.63;;;;;;;;;;4953377;28;20092;-71
2022/03/16 00:15:25;;;;;;;56.33;8.68;;;;;;;;;;4963142;28;20409;-71
2022/03/16 00:17:51;;;;;;;44.75;8.15;;;;;;;;;;4964770;28;20058;-71
2022/03/16 00:20:17;;;;;;;54.95;9.52;;;;;;;;;;4965493;28;20050;-70
2022/03/16 00:22:43;;;;;;;52.95;8.75;;;;;;;;;;4963328;28;20172;-71
2022/03/16 00:25:11;;;;;;;55.25;8.98;;;;;;;;;;4965457;28;20055;-71
2022/03/16 00:27:36;;;;;;;51.47;8.65;;;;;;;;;;4964472;28;20039;-71
2022/03/16 00:30:04;;;;;;;42.33;7.78;;;;;;;;;;4965497;28;20039;-70
2022/03/16 00:32:30;;;;;;;56.47;8.75;;;;;;;;;;4963394;28;20047;-72
2022/03/16 00:34:56;;;;;;;49.50;8.70;;;;;;;;;;4964478;28;20077;-71
2022/03/16 00:37:22;;;;;;;59.42;9.65;;;;;;;;;;4960750;28;20712;-71
2022/03/16 00:39:47;;;;;;;52.00;8.00;;;;;;;;;;4964452;28;20062;-70
2022/03/16 00:42:13;;;;;;;57.10;9.57;;;;;;;;;;4963897;28;20059;-71
2022/03/16 00:44:39;;;;;;;49.70;8.07;;;;;;;;;;4964367;28;20112;-69
2022/03/16 00:47:05;;;;;;;45.33;7.80;;;;;;;;;;4965039;28;20047;-71
2022/03/16 00:49:32;;;;;;;62.30;10.95;;;;;;;;;;4964810;28;20046;-70
2022/03/16 00:51:59;;;;;;;62.67;9.18;;;;;;;;;;4964585;28;20072;-73
2022/03/16 00:54:25;;;;;;;52.15;9.07;;;;;;;;;;4965453;28;20462;-71
2022/03/16 00:56:50;;;;;;;65.03;9.63;;;;;;;;;;4969871;28;20051;-71
2022/03/16 00:59:17;;;;;;;63.28;10.60;;;;;;;;;;4966475;28;20047;-71
2022/03/16 01:01:42;;;;;;;55.30;8.90;;;;;;;;;;4962280;28;20055;-70
2022/03/16 01:04:08;;;;;;;60.90;8.50;;;;;;;;;;4965215;28;20049;-72
2022/03/16 01:06:34;;;;;;;50.72;8.60;;;;;;;;;;4962965;28;20046;-72
2022/03/16 01:09:00;;;;;;;53.70;8.05;;;;;;;;;;4962100;28;20051;-72
2022/03/16 01:11:26;;;;;;;63.65;9.40;;;;;;;;;;4962545;28;20046;-70
2022/03/16 01:13:52;;;;;;;54.70;9.95;;;;;;;;;;4963250;28;20165;-70
2022/03/16 01:16:18;;;;;;;55.40;9.93;;;;;;;;;;4958142;28;20569;-70
2022/03/16 01:18:44;;;;;;;56.28;9.43;;;;;;;;;;4962901;28;20046;-72
2022/03/16 01:21:09;;;;;;;53.58;8.77;;;;;;;;;;4961892;28;20067;-71
2022/03/16 01:23:36;;;;;;;51.00;7.93;;;;;;;;;;4962206;28;20054;-71
2022/03/16 01:26:04;;;;;;;54.30;9.02;;;;;;;;;;4962079;28;20101;-71
2022/03/16 01:28:30;;;;;;;43.65;8.45;;;;;;;;;;4962159;28;20047;-71
2022/03/16 01:30:57;;;;;;;47.00;8.70;;;;;;;;;;4961816;28;20051;-71
2022/03/16 01:33:23;;;;;;;58.42;9.50;;;;;;;;;;4960623;28;20576;-72
2022/03/16 01:35:49;;;;;;;40.55;7.97;;;;;;;;;;4966750;28;20039;-71
2022/03/16 01:38:15;;;;;;;46.03;9.18;;;;;;;;;;4967023;28;20496;-70
2022/03/16 01:40:41;;;;;;;55.88;8.57;;;;;;;;;;4968006;28;20096;-71
2022/03/16 01:43:07;;;;;;;46.95;8.35;;;;;;;;;;4966465;28;20047;-72
2022/03/16 01:45:33;;;;;;;55.13;9.18;;;;;;;;;;4964448;28;20826;-70
2022/03/16 01:47:58;;;;;;;52.05;8.80;;;;;;;;;;4992783;28;20039;-70
2022/03/16 01:50:24;;;;;;;54.50;7.63;;;;;;;;;;4968566;28;20055;-71
2022/03/16 01:52:51;;;;;;;52.05;7.82;;;;;;;;;;4967814;28;20458;-70
2022/03/16 01:55:17;;;;;;;51.83;8.68;;;;;;;;;;4966933;28;20054;-71
2022/03/16 01:57:47;;;;;;;56.75;8.85;;;;;;;;;;4967120;28;20488;-72
2022/03/16 02:00:13;;;;;;;56.67;9.75;;;;;;;;;;4963819;28;20074;-71
2022/03/16 02:02:39;;;;;;;51.55;8.60;;;;;;;;;;4962527;28;20419;-72
2022/03/16 02:05:05;;;;;;;52.20;8.82;;;;;;;;;;4966988;28;20046;-72
2022/03/16 02:07:31;;;;;;;48.65;8.95;;;;;;;;;;4962268;28;20051;-72
2022/03/16 02:10:00;;;;;;;55.47;9.50;;;;;;;;;;4968664;28;20565;-71
2022/03/16 02:12:26;;;;;;;51.35;8.77;;;;;;;;;;4968289;28;20055;-70
2022/03/16 02:14:52;;;;;;;37.95;7.70;;;;;;;;;;4965050;28;20130;-71
2022/03/16 02:17:18;;;;;;;56.92;8.60;;;;;;;;;;4966452;28;20059;-71
2022/03/16 02:19:43;;;;;;;40.20;7.38;;;;;;;;;;4964860;28;20039;-71
2022/03/16 02:22:16;;;;;;;40.42;7.72;;;;;;;;;;4972562;28;20046;-72
2022/03/16 02:24:42;;;;;;;46.90;8.27;;;;;;;;;;4966769;28;20070;-69
2022/03/16 02:27:08;;;;;;;51.00;8.70;;;;;;;;;;4969700;28;20051;-71
2022/03/16 02:29:34;;;;;;;47.08;8.75;;;;;;;;;;4967146;28;20084;-72
2022/03/16 02:32:00;;;;;;;36.42;7.22;;;;;;;;;;4969670;28;20054;-70
2022/03/16 02:34:26;;;;;;;47.58;7.47;;;;;;;;;;4969191;28;20092;-73
2022/03/16 02:36:52;;;;;;;52.83;7.80;;;;;;;;;;4964017;28;20047;-70
2022/03/16 02:39:18;;;;;;;50.50;8.15;;;;;;;;;;4970056;28;20421;-71
2022/03/16 02:41:47;;;;;;;49.70;8.32;;;;;;;;;;4965960;28;20430;-71
2022/03/16 02:44:13;;;;;;;46.95;7.93;;;;;;;;;;4965549;28;20039;-71
2022/03/16 02:46:39;;;;;;;48.58;7.63;;;;;;;;;;4965258;28;20039;-71
2022/03/16 02:49:05;;;;;;;44.20;8.25;;;;;;;;;;4964834;28;20410;-72
2022/03/16 02:51:31;;;;;;;58.10;8.50;;;;;;;;;;4963134;28;20050;-70
2022/03/16 02:53:57;;;;;;;45.08;7.68;;;;;;;;;;4967242;28;20435;-70
2022/03/16 02:56:27;;;;;;;53.30;9.10;;;;;;;;;;4978281;28;20050;-70
2022/03/16 02:58:53;;;;;;;47.72;8.43;;;;;;;;;;4964903;28;20046;-70
2022/03/16 03:01:20;;;;;;;46.70;8.30;;;;;;;;;;4967130;28;20363;-70
2022/03/16 03:03:46;;;;;;;41.40;7.97;;;;;;;;;;4967883;28;20129;-70
2022/03/16 03:06:12;;;;;;;48.15;7.28;;;;;;;;;;4965201;28;20134;-71
2022/03/16 03:08:37;;;;;;;42.40;7.60;;;;;;;;;;4966164;28;20552;-70
2022/03/16 03:11:03;;;;;;;41.53;7.60;;;;;;;;;;4962823;28;20046;-74
2022/03/16 03:13:29;;;;;;;38.72;7.80;;;;;;;;;;4972663;28;20168;-72
2022/03/16 03:15:55;;;;;;;33.90;7.00;;;;;;;;;;4968219;28;20054;-70
2022/03/16 03:18:21;;;;;;;45.53;8.20;;;;;;;;;;4965902;28;20065;-71
2022/03/16 03:20:47;;;;;;;39.05;7.78;;;;;;;;;;4965910;28;20138;-70
2022/03/16 03:23:13;;;;;;;47.05;7.75;;;;;;;;;;4966853;28;20097;-71
2022/03/16 03:25:38;;;;;;;49.03;7.90;;;;;;;;;;4966212;28;20043;-71
2022/03/16 03:28:04;;;;;;;44.58;7.75;;;;;;;;;;4966057;28;20073;-71
2022/03/16 03:30:30;;;;;;;43.53;7.13;;;;;;;;;;4965885;28;20126;-71
2022/03/16 03:32:56;;;;;;;43.70;8.50;;;;;;;;;;4964994;28;20051;-71
2022/03/16 03:35:22;;;;;;;45.33;7.03;;;;;;;;;;4965717;28;20103;-71
2022/03/16 03:37:48;;;;;;;48.88;9.02;;;;;;;;;;4965261;28;20059;-70
2022/03/16 03:40:14;;;;;;;36.38;6.90;;;;;;;;;;4960728;28;20046;-71
2022/03/16 03:42:40;;;;;;;43.10;7.30;;;;;;;;;;4971377;28;20042;-70
2022/03/16 03:45:06;;;;;;;40.33;7.10;;;;;;;;;;4965283;28;20865;-71
2022/03/16 03:47:32;;;;;;;40.45;7.85;;;;;;;;;;4979596;28;20629;-71
2022/03/16 03:49:58;;;;;;;36.88;6.80;;;;;;;;;;4959324;28;20043;-71
2022/03/16 03:52:24;;;;;;;55.08;8.23;;;;;;;;;;4965589;28;20047;-71
2022/03/16 03:54:50;;;;;;;43.97;7.32;;;;;;;;;;4965298;28;20047;-70
2022/03/16 03:57:16;;;;;;;45.65;7.53;;;;;;;;;;4964381;28;20061;-72
2022/03/16 03:59:42;;;;;;;35.70;7.07;;;;;;;;;;4964687;28;20128;-69
2022/03/16 04:02:08;;;;;;;38.75;7.72;;;;;;;;;;4963852;28;20059;-71
2022/03/16 04:04:34;;;;;;;37.28;6.93;;;;;;;;;;4973492;28;20049;-71
2022/03/16 04:06:59;;;;;;;47.05;8.07;;;;;;;;;;4964857;28;20061;-70
2022/03/16 04:09:25;;;;;;;34.42;6.95;;;;;;;;;;4967317;28;20058;-70
2022/03/16 04:11:52;;;;;;;43.75;7.30;;;;;;;;;;4967797;28;20102;-70
2022/03/16 04:14:17;;;;;;;34.83;6.90;;;;;;;;;;4968662;28;20052;-71
2022/03/16 04:16:43;;;;;;;38.45;7.13;;;;;;;;;;4968083;28;20411;-72
2022/03/16 04:19:09;;;;;;;34.00;6.47;;;;;;;;;;4963362;28;20527;-71
2022/03/16 04:21:35;;;;;;;34.88;6.50;;;;;;;;;;4981792;28;20050;-71
2022/03/16 04:24:02;;;;;;;35.83;7.55;;;;;;;;;;4962970;28;20043;-72
2022/03/16 04:26:28;;;;;;;38.70;6.55;;;;;;;;;;4965316;28;20063;-72
2022/03/16 04:28:54;;;;;;;43.97;7.90;;;;;;;;;;4962830;28;20088;-72
2022/03/16 04:31:21;;;;;;;43.83;7.05;;;;;;;;;;4966380;28;20080;-72
2022/03/16 04:33:47;;;;;;;37.72;7.40;;;;;;;;;;4961591;28;20065;-70
2022/03/16 04:36:13;;;;;;;41.95;7.22;;;;;;;;;;4964262;28;20043;-70
2022/03/16 04:38:39;;;;;;;39.00;7.10;;;;;;;;;;4962457;28;20519;-71
2022/03/16 04:41:05;;;;;;;43.17;7.85;;;;;;;;;;4964592;28;20051;-70
2022/03/16 04:43:31;;;;;;;37.92;8.45;;;;;;;;;;4963791;28;20491;-71
2022/03/16 04:45:57;;;;;;;40.03;7.05;;;;;;;;;;4964891;28;20058;-70
2022/03/16 04:48:23;;;;;;;37.85;7.40;;;;;;;;;;4963668;28;20051;-73
2022/03/16 04:50:49;;;;;;;36.30;7.55;;;;;;;;;;4965127;28;20051;-70
2022/03/16 04:53:14;;;;;;;42.28;7.40;;;;;;;;;;4964130;28;20070;-71
2022/03/16 04:55:41;;;;;;;33.72;7.97;;;;;;;;;;4965796;28;20138;-69
2022/03/16 04:58:07;;;;;;;36.92;7.10;;;;;;;;;;4965838;28;20115;-71
2022/03/16 05:00:35;;;;;;;41.90;7.30;;;;;;;;;;4963397;28;20058;-70
2022/03/16 05:03:02;;;;;;;31.70;7.03;;;;;;;;;;4967369;28;20051;-70
2022/03/16 05:05:28;;;;;;;31.42;6.45;;;;;;;;;;4965877;28;20042;-68
2022/03/16 05:07:55;;;;;;;39.65;7.35;;;;;;;;;;4968353;28;20121;-71
2022/03/16 05:10:21;;;;;;;32.40;6.85;;;;;;;;;;4968461;28;20039;-73
2022/03/16 05:12:47;;;;;;;36.13;8.02;;;;;;;;;;4968534;28;20076;-69
2022/03/16 05:15:16;;;;;;;38.65;6.53;;;;;;;;;;4967844;28;20480;-70
2022/03/16 05:17:42;;;;;;;40.90;8.45;;;;;;;;;;4968431;28;20500;-70
2022/03/16 05:20:08;;;;;;;32.40;7.57;;;;;;;;;;4966003;28;20356;-70
2022/03/16 05:22:44;;;;;;;37.85;7.43;;;;;;;;;;4964908;28;20480;-70
2022/03/16 05:25:19;;;;;;;37.92;7.53;;;;;;;;;;4967031;28;20054;-71
2022/03/16 05:27:46;;;;;;;40.53;7.25;;;;;;;;;;4969403;28;20046;-70
2022/03/16 05:30:13;;;;;;;38.47;7.32;;;;;;;;;;4966177;28;20071;-70
2022/03/16 05:32:41;;;;;;;46.22;8.52;;;;;;;;;;4978541;28;20053;-69
2022/03/16 05:35:08;;;;;;;35.50;7.05;;;;;;;;;;4948299;28;20052;-71
2022/03/16 05:37:35;;;;;;;38.60;8.13;;;;;;;;;;4947511;28;20736;-71
2022/03/16 05:40:01;;;;;;;50.03;7.80;;;;;;;;;;4937252;28;20078;-71
2022/03/16 05:42:27;;;;;;;37.92;6.82;;;;;;;;;;4949964;28;20083;-70
2022/03/16 05:44:54;;;;;;;31.00;6.80;;;;;;;;;;4940496;28;20178;-74
2022/03/16 05:47:22;;;;;;;43.67;7.43;;;;;;;;;;4940145;28;20420;-70
2022/03/16 05:49:50;;;;;;;37.35;8.02;;;;;;;;;;4951034;28;20130;-70
2022/03/16 05:52:16;;;;;;;34.50;7.78;;;;;;;;;;4952436;28;20043;-70
2022/03/16 05:54:43;;;;;;;28.77;7.10;;;;;;;;;;4950592;28;20540;-70
2022/03/16 05:57:11;;;;;;;36.92;7.45;;;;;;;;;;4948986;28;20097;-71
2022/03/16 05:59:37;;;;;;;25.48;6.60;;;;;;;;;;4947958;28;20149;-72
2022/03/16 06:02:03;;;;;;;34.38;6.65;;;;;;;;;;4952465;28;20066;-71
2022/03/16 06:04:29;;;;;;;28.45;6.53;;;;;;;;;;4953137;28;20116;-69
2022/03/16 06:06:54;;;;;;;29.58;7.15;;;;;;;;;;4950034;28;20096;-70
2022/03/16 06:09:20;;;;;;;32.35;5.60;;;;;;;;;;4950379;28;20541;-70
2022/03/16 06:11:46;;;;;;;35.85;7.10;;;;;;;;;;4950894;28;20547;-70
2022/03/16 06:14:12;;;;;;;29.02;6.43;;;;;;;;;;4952930;28;20050;-70
2022/03/16 06:16:38;;;;;;;29.65;5.45;;;;;;;;;;4952902;28;20051;-70
2022/03/16 06:19:04;;;;;;;34.03;6.30;;;;;;;;;;4956467;28;20053;-72
2022/03/16 06:21:30;;;;;;;27.38;5.78;;;;;;;;;;4952931;28;20066;-69
2022/03/16 06:23:55;;;;;;;23.20;5.30;;;;;;;;;;4949591;28;20093;-71
2022/03/16 06:26:21;;;;;;;26.23;6.03;;;;;;;;;;4951228;28;20314;-70
2022/03/16 06:28:47;;;;;;;24.92;5.55;;;;;;;;;;4950881;28;20047;-72
2022/03/16 06:31:13;;;;;;;20.38;5.15;;;;;;;;;;4955568;28;20043;-70
2022/03/16 06:33:39;;;;;;;27.35;6.70;;;;;;;;;;4957266;28;20500;-70
2022/03/16 06:36:05;;;;;;;27.60;6.63;;;;;;;;;;4947363;28;20039;-74
2022/03/16 06:38:31;;;;;;;29.13;5.78;;;;;;;;;;4959160;28;20046;-71
2022/03/16 06:40:57;;;;;;;30.13;6.00;;;;;;;;;;4954987;28;20463;-69
2022/03/16 06:43:25;;;;;;;24.60;6.00;;;;;;;;;;4949521;28;20054;-71
2022/03/16 06:45:51;;;;;;;24.75;5.80;;;;;;;;;;4949800;28;20046;-68
2022/03/16 06:48:21;;;;;;;26.17;5.40;;;;;;;;;;4949155;28;20393;-69
2022/03/16 06:50:47;;;;;;;27.65;5.50;;;;;;;;;;4950403;28;20070;-71
2022/03/16 06:53:13;;;;;;;19.48;5.20;;;;;;;;;;4957075;28;20092;-69
2022/03/16 06:55:39;;;;;;;23.55;5.60;;;;;;;;;;4962692;28;20046;-71
2022/03/16 06:58:05;;;;;;;22.45;5.80;;;;;;;;;;4952080;28;20442;-69
2022/03/16 07:00:31;;;;;;;21.52;4.93;;;;;;;;;;4949448;28;20055;-70
2022/03/16 07:02:59;;;;;;;19.08;5.40;;;;;;;;;;4951325;28;20058;-71
2022/03/16 07:05:36;;;;;;;26.48;5.78;;;;;;;;;;4947547;28;20039;-70
2022/03/16 07:08:04;;;;;;;32.85;6.35;;;;;;;;;;4952189;28;20063;-71
2022/03/16 07:10:32;;;;;;;20.25;5.03;;;;;;;;;;4950367;28;20083;-69
2022/03/16 07:12:59;;;;;;;27.90;6.53;;;;;;;;;;4953497;28;20501;-69
2022/03/16 07:15:26;;;;;;;23.05;5.30;;;;;;;;;;4953823;28;20140;-68
2022/03/16 07:17:52;;;;;;;14.82;4.63;;;;;;;;;;4966173;28;20055;-70
2022/03/16 07:20:18;;;;;;;25.10;6.68;;;;;;;;;;4960315;28;20058;-72
2022/03/16 07:22:45;;;;;;;22.20;5.05;;;;;;;;;;4953438;28;20212;-71
2022/03/16 07:25:10;;;;;;;25.27;5.55;;;;;;;;;;4949018;28;20048;-69
2022/03/16 07:27:38;;;;;;;24.48;6.25;;;;;;;;;;4967489;28;20058;-70
2022/03/16 07:30:06;;;;;;;29.10;5.65;;;;;;;;;;4948891;28;20129;-71
2022/03/16 07:32:35;;;;;;;19.67;5.60;;;;;;;;;;4948524;28;20082;-70
2022/03/16 07:35:00;;;;;;;20.33;5.35;;;;;;;;;;4950587;28;20108;-72
2022/03/16 07:37:26;;;;;;;21.45;6.07;;;;;;;;;;4950889;28;20057;-71
2022/03/16 07:39:52;;;;;;;22.90;6.32;;;;;;;;;;4951160;28;20051;-71
2022/03/16 07:42:18;;;;;;;32.55;6.88;;;;;;;;;;4953891;28;20504;-70
2022/03/16 07:44:45;;;;;;;28.80;7.57;;;;;;;;;;4952205;28;20050;-72
2022/03/16 07:47:11;;;;;;;30.52;6.80;;;;;;;;;;4958561;28;20039;-71
2022/03/16 07:49:37;;;;;;;28.92;6.32;;;;;;;;;;4949216;28;20507;-72
2022/03/16 07:52:03;;;;;;;22.27;6.55;;;;;;;;;;4951947;28;20051;-70
2022/03/16 07:54:29;;;;;;;44.45;7.43;;;;;;;;;;4951305;28;20047;-69
2022/03/16 07:56:56;;;;;;;34.08;6.38;;;;;;;;;;4951292;28;20101;-70
2022/03/16 07:59:22;;;;;;;24.15;5.57;;;;;;;;;;4948653;28;20142;-71
2022/03/16 08:01:48;;;;;;;25.85;5.78;;;;;;;;;;4955426;28;20058;-71
2022/03/16 08:04:15;;;;;;;22.63;6.22;;;;;;;;;;4946975;28;20722;-71
2022/03/16 08:06:41;;;;;;;21.33;6.43;;;;;;;;;;4956004;28;20281;-72
2022/03/16 08:09:07;;;;;;;34.63;7.20;;;;;;;;;;4960439;28;20047;-70
2022/03/16 08:11:33;;;;;;;25.85;6.40;;;;;;;;;;4963744;28;20054;-71
2022/03/16 08:13:59;;;;;;;30.15;6.20;;;;;;;;;;4965437;28;20085;-70
2022/03/16 08:16:25;;;;;;;24.40;6.10;;;;;;;;;;4955865;28;20063;-70
2022/03/16 08:18:51;;;;;;;23.02;5.65;;;;;;;;;;4957934;28;20067;-72
2022/03/16 08:21:17;;;;;;;29.27;6.40;;;;;;;;;;4960639;28;20051;-71
2022/03/16 08:23:43;;;;;;;21.33;6.28;;;;;;;;;;4978356;28;20043;-73
2022/03/16 08:26:09;;;;;;;24.88;5.82;;;;;;;;;;4973845;28;20321;-71
2022/03/16 08:28:34;;;;;;;20.73;6.22;;;;;;;;;;4961053;28;20051;-74
2022/03/16 08:31:01;;;;;;;20.73;7.00;;;;;;;;;;4959297;28;20047;-71
2022/03/16 08:33:27;;;;;;;34.95;7.35;;;;;;;;;;4962915;28;20579;-74
2022/03/16 08:35:53;;;;;;;28.45;6.07;;;;;;;;;;4964516;28;20181;-71
2022/03/16 08:38:19;;;;;;;20.67;6.43;;;;;;;;;;4955524;28;20563;-76
2022/03/16 08:40:46;;;;;;;37.00;7.10;;;;;;;;;;4957825;28;20043;-76
2022/03/16 08:43:12;;;;;;;27.38;7.13;;;;;;;;;;4961692;28;20346;-74
2022/03/16 08:45:39;;;;;;;25.90;6.10;;;;;;;;;;4993720;28;20099;-74
2022/03/16 08:48:05;;;;;;;26.70;6.63;;;;;;;;;;4965326;28;20050;-71
2022/03/16 08:50:31;;;;;;;28.42;6.03;;;;;;;;;;5017067;28;20051;-71
2022/03/16 08:52:57;;;;;;;23.98;5.85;;;;;;;;;;4970276;28;20043;-73
2022/03/16 08:55:24;;;;;;;24.98;6.18;;;;;;;;;;4977923;28;20374;-71
2022/03/16 08:57:50;;;;;;;25.23;6.80;;;;;;;;;;4974229;28;20084;-75
2022/03/16 09:00:18;;;;;;;21.33;6.50;;;;;;;;;;4947134;28;20047;-72
2022/03/16 09:02:45;;;;;;;31.77;5.43;;;;;;;;;;4961317;28;20112;-72
2022/03/16 09:05:17;;;;;;;39.17;7.00;;;;;;;;;;4966010;28;20051;-70
2022/03/16 09:07:43;;;;;;;23.13;5.78;;;;;;;;;;4964207;28;20492;-72
2022/03/16 09:10:09;;;;;;;26.95;5.80;;;;;;;;;;4966380;28;20182;-75
2022/03/16 09:12:37;;;;;;;21.83;5.82;;;;;;;;;;4961706;28;20540;-72
2022/03/16 09:15:04;;;;;;;18.17;5.15;;;;;;;;;;4965029;28;20050;-77
2022/03/16 09:17:30;;;;;;;20.77;4.70;;;;;;;;;;4961214;28;20328;-71
2022/03/16 09:19:57;;;;;;;21.38;5.00;;;;;;;;;;4966215;28;20053;-75
2022/03/16 09:22:23;;;;;;;18.30;4.40;;;;;;;;;;4995002;28;20047;-73
2022/03/16 09:24:49;;;;;;;16.27;4.78;;;;;;;;;;4976751;28;20513;-70
2022/03/16 09:27:16;;;;;;;16.70;4.28;;;;;;;;;;4987660;28;20051;-68
2022/03/16 09:29:46;;;;;;;23.58;4.80;;;;;;;;;;4963448;28;20085;-71
2022/03/16 09:32:13;;;;;;;22.85;4.78;;;;;;;;;;4963342;28;20594;-72
2022/03/16 09:34:40;;;;;;;17.27;4.60;;;;;;;;;;4963912;28;20500;-71
2022/03/16 09:37:08;;;;;;;24.50;4.75;;;;;;;;;;4972806;28;20043;-71
2022/03/16 09:39:35;;;;;;;15.50;4.28;;;;;;;;;;4956519;28;20039;-71
2022/03/16 09:42:03;;;;;;;20.17;4.70;;;;;;;;;;4963037;28;20047;-74
2022/03/16 09:44:30;;;;;;;13.48;4.60;;;;;;;;;;4991576;28;20411;-73
2022/03/16 09:46:57;;;;;;;17.08;4.00;;;;;;;;;;4967421;28;20047;-73
2022/03/16 09:49:26;;;;;;;21.42;4.15;;;;;;;;;;4962995;28;20054;-71
2022/03/16 09:51:53;;;;;;;20.08;3.55;;;;;;;;;;4961772;28;20643;-73
2022/03/16 09:54:24;;;;;;;17.20;4.20;;;;;;;;;;4953431;28;20050;-73
2022/03/16 09:56:49;;;;;;;16.40;4.07;;;;;;;;;;4963174;28;20054;-71
2022/03/16 09:59:16;;;;;;;16.88;3.67;;;;;;;;;;4969430;28;20488;-70
2022/03/16 10:01:43;;;;;;;11.82;3.97;;;;;;;;;;4960723;28;20878;-75
2022/03/16 10:04:09;;;;;;;15.65;3.75;;;;;;;;;;4968260;28;20055;-73
2022/03/16 10:06:40;;;;;;;14.20;4.03;;;;;;;;;;4989000;28;20048;-70
2022/03/16 10:15:03;;;;;;;18.30;4.63;;;;;;;;;;4963340;28;20050;-74
2022/03/16 10:17:44;;;;;;;9.60;3.13;;;;;;;;;;4967977;28;20548;-74
2022/03/16 10:20:37;;;;;;;15.98;4.25;;;;;;;;;;4952622;28;20128;-71
2022/03/16 10:23:18;;;;;;;12.82;3.85;;;;;;;;;;4967175;28;20138;-73
2022/03/16 10:25:51;;;;;;;14.73;4.00;;;;;;;;;;4965239;28;20038;-71
2022/03/16 10:28:22;;;;;;;18.23;4.25;;;;;;;;;;4965710;28;20555;-73
2022/03/16 10:30:57;;;;;;;14.65;3.60;;;;;;;;;;4972870;28;20051;-71
2022/03/16 10:33:49;;;;;;;12.90;3.58;;;;;;;;;;4974592;28;20047;-75
2022/03/16 10:36:17;;;;;;;12.60;3.50;;;;;;;;;;4962822;28;20120;-77
2022/03/16 10:39:03;;;;;;;18.45;4.10;;;;;;;;;;4963067;28;20576;-72
2022/03/16 10:47:18;;;;;;;15.95;3.75;;;;;;;;;;4964556;28;20563;-73
2022/03/16 10:49:45;;;;;;;16.55;4.97;;;;;;;;;;4967488;28;20047;-70
2022/03/16 10:52:20;;;;;;;20.98;3.88;;;;;;;;;;4969657;28;20488;-73
2022/03/16 10:54:48;;;;;;;16.17;4.40;;;;;;;;;;4967480;28;20199;-73
2022/03/16 10:57:15;;;;;;;10.43;3.20;;;;;;;;;;4965821;28;20162;-73
2022/03/16 10:59:48;;;;;;;18.27;4.80;;;;;;;;;;4963024;28;20285;-74
2022/03/16 11:02:18;;;;;;;14.65;3.50;;;;;;;;;;4965849;28;20051;-73
2022/03/16 11:04:50;;;;;;;25.23;4.63;;;;;;;;;;4967176;28;20067;-74
2022/03/16 11:07:18;;;;;;;15.15;3.90;;;;;;;;;;4969925;28;20039;-73
2022/03/16 11:09:44;;;;;;;20.52;4.22;;;;;;;;;;4975426;28;20552;-73
2022/03/16 11:14:56;;;;;;;25.15;4.43;;;;;;;;;;4963238;28;20317;-74
2022/03/16 11:17:22;;;;;;;17.23;3.95;;;;;;;;;;4969149;28;20081;-72
2022/03/16 11:19:51;;;;;;;17.15;6.30;;;;;;;;;;4967723;28;20439;-71
2022/03/16 11:22:34;;;;;;;19.52;4.43;;;;;;;;;;4968489;28;20058;-70
2022/03/16 11:25:05;;;;;;;17.65;4.82;;;;;;;;;;4962881;28;20454;-72
2022/03/16 11:27:40;;;;;;;19.52;4.55;;;;;;;;;;4965624;28;20046;-73
2022/03/16 11:30:21;;;;;;;19.90;4.47;;;;;;;;;;4966327;28;20034;-76
2022/03/16 11:32:47;;;;;;;18.45;4.85;;;;;;;;;;4967701;28;20068;-72
2022/03/16 11:35:15;;;;;;;19.55;4.28;;;;;;;;;;4961267;28;20093;-77
2022/03/16 11:37:45;;;;;;;30.33;5.80;;;;;;;;;;4963530;28;20070;-72
2022/03/16 11:40:17;;;;;;;22.90;5.38;;;;;;;;;;4963982;28;20504;-74
2022/03/16 11:43:05;;;;;;;16.88;4.88;;;;;;;;;;4972626;28;20047;-73
2022/03/16 11:45:50;;;;;;;27.10;6.57;;;;;;;;;;4965601;28;20082;-74
2022/03/16 11:48:31;;;;;;;18.40;4.55;;;;;;;;;;4999547;28;20090;-72
2022/03/16 11:51:09;;;;;;;21.50;4.97;;;;;;;;;;4982003;28;20115;-71
2022/03/16 11:54:01;;;;;;;29.63;5.28;;;;;;;;;;4969754;28;20077;-68
2022/03/16 11:56:40;;;;;;;19.58;4.82;;;;;;;;;;4964324;28;20073;-70
2022/03/16 11:59:17;;;;;;;22.13;4.90;;;;;;;;;;4964965;28;20338;-71
2022/03/16 12:02:01;;;;;;;17.52;4.90;;;;;;;;;;4965703;28;20066;-72
2022/03/16 12:04:35;;;;;;;21.73;4.77;;;;;;;;;;4968856;28;20051;-73
2022/03/16 12:07:08;;;;;;;23.30;5.60;;;;;;;;;;4966342;28;20130;-69
2022/03/16 12:09:41;;;;;;;20.50;4.55;;;;;;;;;;4969716;28;20049;-72
2022/03/16 12:15:20;;;;;;;22.35;4.32;;;;;;;;;;4969976;28;20043;-75
2022/03/16 12:17:52;;;;;;;22.35;5.65;;;;;;;;;;4964736;28;20246;-73
2022/03/16 12:20:36;;;;;;;20.48;4.72;;;;;;;;;;4969492;28;20109;-73
2022/03/16 12:23:10;;;;;;;18.20;4.53;;;;;;;;;;4963786;28;20110;-73
2022/03/16 12:25:37;;;;;;;26.40;5.55;;;;;;;;;;4967913;28;20491;-70
2022/03/16 12:30:59;;;;;;;22.27;5.15;;;;;;;;;;4957234;28;20445;-71
2022/03/16 12:33:30;;;;;;;27.30;4.90;;;;;;;;;;4996499;28;20062;-69
2022/03/16 12:36:13;;;;;;;24.15;5.40;;;;;;;;;;4980915;28;20478;-68
2022/03/16 12:38:44;;;;;;;22.30;6.07;;;;;;;;;;4964676;28;20066;-70
2022/03/16 12:44:01;;;;;;;19.48;4.68;;;;;;;;;;4963556;28;20058;-70
2022/03/16 12:46:36;;;;;;;24.55;5.93;;;;;;;;;;4965658;28;20353;-70
2022/03/16 12:49:11;;;;;;;29.25;6.45;;;;;;;;;;4966419;28;20602;-69
2022/03/16 12:51:51;;;;;;;31.00;9.90;;;;;;;;;;4962993;28;20680;-73
2022/03/16 12:54:27;;;;;;;30.25;7.95;;;;;;;;;;4961060;28;20034;-71
2022/03/16 12:57:06;;;;;;;30.35;6.82;;;;;;;;;;5033952;28;20057;-74
2022/03/16 12:59:34;;;;;;;30.80;6.50;;;;;;;;;;4967816;28;20168;-72
2022/03/16 13:02:03;;;;;;;36.67;12.90;;;;;;;;;;4965419;28;20051;-76
2022/03/16 13:04:29;;;;;;;27.83;8.55;;;;;;;;;;4968971;28;20506;-74
2022/03/16 13:06:58;;;;;;;27.83;6.80;;;;;;;;;;4972026;28;20104;-71
2022/03/16 13:09:28;;;;;;;42.10;10.23;;;;;;;;;;4968367;28;20046;-75
2022/03/16 13:12:06;;;;;;;37.75;8.85;;;;;;;;;;4954399;28;20054;-74
2022/03/16 13:14:33;;;;;;;23.92;6.47;;;;;;;;;;4957567;28;20248;-72
2022/03/16 13:17:00;;;;;;;26.50;6.72;;;;;;;;;;4962681;28;20566;-70
2022/03/16 13:19:28;;;;;;;29.73;6.18;;;;;;;;;;4958840;28;20046;-75
2022/03/16 13:22:05;;;;;;;24.80;6.43;;;;;;;;;;4963928;28;20518;-70
2022/03/16 13:24:49;;;;;;;20.48;4.95;;;;;;;;;;4989199;28;20046;-72
2022/03/16 13:27:21;;;;;;;26.10;4.95;;;;;;;;;;4953595;28;20496;-75
2022/03/16 13:29:57;;;;;;;24.70;5.22;;;;;;;;;;4963592;28;20066;-73
2022/03/16 13:32:35;;;;;;;25.77;6.32;;;;;;;;;;4963200;28;20051;-72
2022/03/16 13:35:14;;;;;;;22.67;5.25;;;;;;;;;;4964498;28;20484;-72
2022/03/16 13:37:47;;;;;;;28.17;5.38;;;;;;;;;;4965500;28;20508;-70
2022/03/16 13:40:17;;;;;;;29.15;6.15;;;;;;;;;;4967806;28;20043;-71
2022/03/16 13:42:43;;;;;;;26.77;5.97;;;;;;;;;;4962857;28;20512;-74
2022/03/16 13:45:26;;;;;;;27.70;6.28;;;;;;;;;;4965740;28;20096;-71
2022/03/16 13:48:13;;;;;;;24.00;5.32;;;;;;;;;;4963914;28;20047;-72
2022/03/16 13:51:06;;;;;;;32.50;5.55;;;;;;;;;;4956581;28;20039;-72
2022/03/16 13:53:45;;;;;;;31.23;6.63;;;;;;;;;;5000656;28;20046;-72
2022/03/16 13:56:19;;;;;;;28.58;5.60;;;;;;;;;;4970061;28;20100;-71
2022/03/16 13:58:47;;;;;;;27.48;5.93;;;;;;;;;;4979764;28;20078;-70
2022/03/16 14:01:23;;;;;;;32.63;6.28;;;;;;;;;;4961445;28;20051;-73
2022/03/16 14:04:06;;;;;;;33.45;5.97;;;;;;;;;;4964067;28;20072;-69
2022/03/16 14:06:41;;;;;;;32.35;6.50;;;;;;;;;;4968683;28;20050;-73
2022/03/16 14:09:26;;;;;;;25.80;6.05;;;;;;;;;;4964983;28;20061;-73
2022/03/16 14:11:52;;;;;;;32.35;6.47;;;;;;;;;;4963357;28;20510;-74
2022/03/16 14:14:19;;;;;;;33.95;7.00;;;;;;;;;;4951088;28;20311;-71
2022/03/16 14:16:49;;;;;;;38.30;7.35;;;;;;;;;;4971955;28;20404;-74
2022/03/16 14:19:30;;;;;;;30.70;6.40;;;;;;;;;;4976058;28;20046;-72
2022/03/16 14:21:58;;;;;;;26.67;5.75;;;;;;;;;;4964014;28;20168;-75
2022/03/16 14:24:25;;;;;;;29.50;6.00;;;;;;;;;;4956934;28;20081;-71
2022/03/16 14:26:51;;;;;;;28.92;6.32;;;;;;;;;;4961743;28;20562;-71
2022/03/16 14:29:18;;;;;;;34.88;6.88;;;;;;;;;;4962725;28;20046;-70
2022/03/16 14:31:44;;;;;;;28.08;6.30;;;;;;;;;;5009974;28;20040;-71
2022/03/16 14:34:10;;;;;;;25.95;6.50;;;;;;;;;;4988872;28;20076;-70
2022/03/16 14:36:37;;;;;;;44.00;6.80;;;;;;;;;;4967000;28;20057;-72
2022/03/16 14:39:04;;;;;;;35.15;6.65;;;;;;;;;;4989908;28;20044;-72
2022/03/16 14:41:30;;;;;;;47.60;7.97;;;;;;;;;;4966352;28;20089;-70
2022/03/16 14:43:56;;;;;;;37.75;7.72;;;;;;;;;;4965179;28;20050;-75
2022/03/16 14:46:21;;;;;;;41.13;7.68;;;;;;;;;;4961688;28;20043;-69
2022/03/16 14:48:47;;;;;;;29.70;7.00;;;;;;;;;;4969816;28;20042;-75
2022/03/16 14:51:13;;;;;;;44.53;7.03;;;;;;;;;;4983066;28;20057;-72
2022/03/16 14:53:39;;;;;;;45.35;7.00;;;;;;;;;;4963706;28;20070;-73
2022/03/16 14:56:05;;;;;;;41.45;7.28;;;;;;;;;;4964669;28;20484;-71
2022/03/16 14:58:31;;;;;;;31.45;7.43;;;;;;;;;;4948307;28;20062;-74